Terminal Aerodrome Forecast
Issued by NWS Jackson, MS

Home | Current Version | Previous Version | Text Only | Print | Product List | Glossary On
Versions: 1 2 3 4 5 6 7 8 9 10
941
FTUS44 KJAN 262321
TAFGLH
TAF
KGLH 262321Z 2700/2724 17018G30KT 3SM TSRA BR BKN050CB OVC090
     FM270300 23016G28KT P6SM VCSH BKN015 OVC090
     FM270600 28014G26KT P6SM BKN025
     FM270900 29008KT P6SM FEW025 SCT250=

USA.gov is the U.S. government's official web portal to all federal, state and local government web resources and services.